Time;durP1;ratioP1;P1;durP2;ratioP2;P2;SDS_P1;SDS_P2;PMS_P1;PMS_P2;Temp;Humidity;BMP_temperature;BMP_pressure;BME280_temperature;BME280_humidity;BME280_pressure;Samples;Min_cycle;Max_cycle;Signal;HPM_P1;HPM_P2
2021/07/06 00:02:08;;;;;;;7.33;6.83;;;21.00;99.90;;;;;;6369972;27;20216;-68
2021/07/06 00:05:12;;;;;;;5.73;5.27;;;21.00;99.90;;;;;;6371773;27;20239;-68
2021/07/06 00:08:16;;;;;;;6.30;5.80;;;21.00;99.90;;;;;;6373829;27;20225;-70
2021/07/06 00:11:19;;;;;;;5.63;5.23;;;20.90;99.90;;;;;;6374542;27;20239;-69
2021/07/06 00:14:24;;;;;;;5.27;4.87;;;20.80;99.90;;;;;;6369919;27;20243;-70
2021/07/06 00:17:27;;;;;;;6.40;5.70;;;20.80;99.90;;;;;;6348657;27;20240;-69
2021/07/06 00:20:30;;;;;;;5.97;5.57;;;20.80;99.90;;;;;;6374903;27;20201;-69
2021/07/06 00:23:34;;;;;;;6.00;5.50;;;20.80;99.90;;;;;;6374117;27;20201;-69
2021/07/06 00:26:37;;;;;;;5.90;5.40;;;20.70;99.90;;;;;;6379015;27;20216;-70
2021/07/06 00:29:42;;;;;;;6.03;5.53;;;20.70;99.90;;;;;;6379467;27;20205;-70
2021/07/06 00:32:45;;;;;;;5.80;5.30;;;20.60;99.90;;;;;;6380223;27;20211;-69
2021/07/06 00:35:48;;;;;;;5.80;5.40;;;20.60;99.90;;;;;;6379333;27;20239;-69
2021/07/06 00:38:51;;;;;;;6.60;6.10;;;20.50;99.90;;;;;;6379627;27;20240;-69
2021/07/06 00:41:55;;;;;;;5.60;5.20;;;20.50;99.90;;;;;;6379181;27;20235;-69
2021/07/06 00:44:59;;;;;;;5.67;5.10;;;20.50;99.90;;;;;;6378936;27;20228;-69
2021/07/06 00:48:03;;;;;;;7.27;6.57;;;20.40;99.90;;;;;;6378655;27;20669;-70
2021/07/06 00:51:06;;;;;;;6.40;5.90;;;20.30;99.90;;;;;;6378326;27;20235;-70
2021/07/06 00:54:11;;;;;;;5.83;5.30;;;20.30;99.90;;;;;;6378857;27;20229;-70
2021/07/06 00:57:14;;;;;;;6.53;5.93;;;20.30;99.90;;;;;;6377926;27;20575;-70
2021/07/06 01:00:20;;;;;;;6.33;5.73;;;20.30;99.90;;;;;;6378767;27;20228;-70
2021/07/06 01:03:24;;;;;;;6.03;5.53;;;20.30;99.90;;;;;;6378613;27;20704;-69
2021/07/06 01:06:27;;;;;;;5.53;5.07;;;20.30;99.90;;;;;;6378704;27;20228;-71
2021/07/06 01:09:31;;;;;;;6.97;6.37;;;20.30;99.90;;;;;;6378806;27;20231;-72
2021/07/06 01:12:35;;;;;;;6.20;5.70;;;20.20;99.90;;;;;;6378997;27;20224;-70
2021/07/06 01:15:39;;;;;;;5.83;5.23;;;20.20;99.90;;;;;;6373540;27;20229;-69
2021/07/06 01:18:44;;;;;;;6.93;6.27;;;20.20;99.90;;;;;;6378585;27;20240;-70
2021/07/06 01:21:47;;;;;;;5.77;5.27;;;20.30;99.90;;;;;;6378373;27;20229;-70
2021/07/06 01:24:51;;;;;;;5.90;5.40;;;20.30;99.90;;;;;;6378477;27;20236;-70
2021/07/06 01:27:54;;;;;;;5.53;5.03;;;20.20;99.90;;;;;;6377979;27;20571;-69
2021/07/06 01:30:58;;;;;;;6.00;5.53;;;20.20;99.90;;;;;;6378178;27;20225;-70
2021/07/06 01:34:01;;;;;;;6.00;5.53;;;20.20;99.90;;;;;;6378252;27;20235;-70
2021/07/06 01:37:04;;;;;;;6.13;5.53;;;20.20;99.90;;;;;;6377782;27;20240;-70
2021/07/06 01:40:10;;;;;;;6.40;5.80;;;20.00;99.90;;;;;;6378117;27;20240;-70
2021/07/06 01:43:13;;;;;;;6.77;6.17;;;19.90;99.90;;;;;;6377551;27;20240;-70
2021/07/06 01:46:17;;;;;;;6.30;5.77;;;19.90;99.90;;;;;;6377757;27;20225;-70
2021/07/06 01:49:21;;;;;;;6.77;6.17;;;19.90;99.90;;;;;;6377724;27;20282;-70
2021/07/06 01:52:25;;;;;;;6.37;5.83;;;19.90;99.90;;;;;;6377651;27;20236;-69
2021/07/06 01:55:31;;;;;;;6.83;6.23;;;19.90;99.90;;;;;;6377065;27;20692;-70
2021/07/06 01:58:35;;;;;;;5.83;5.43;;;19.90;99.90;;;;;;6377627;27;20795;-70
2021/07/06 02:01:39;;;;;;;6.53;6.03;;;19.90;99.90;;;;;;6377185;27;20232;-70
2021/07/06 02:04:42;;;;;;;5.90;5.40;;;19.90;99.90;;;;;;6377286;27;20682;-70
2021/07/06 02:07:46;;;;;;;6.63;6.03;;;19.90;99.90;;;;;;6376868;27;20674;-69
2021/07/06 02:10:58;;;;;;;7.23;6.63;;;19.90;99.90;;;;;;6377140;27;20228;-70
2021/07/06 02:14:03;;;;;;;6.20;5.70;;;19.80;99.90;;;;;;6376863;27;20247;-70
2021/07/06 02:17:06;;;;;;;6.43;5.93;;;19.80;99.90;;;;;;6377130;27;20236;-69
2021/07/06 02:20:13;;;;;;;6.47;5.97;;;19.70;99.90;;;;;;6372124;27;20249;-69
2021/07/06 02:23:16;;;;;;;7.13;5.80;;;19.80;99.90;;;;;;6376835;27;20240;-69
2021/07/06 02:26:21;;;;;;;6.07;5.57;;;19.80;99.90;;;;;;6376573;27;20224;-69
2021/07/06 02:29:24;;;;;;;6.40;5.80;;;19.70;99.90;;;;;;6376417;27;20224;-69
2021/07/06 02:32:27;;;;;;;6.40;5.90;;;19.70;99.90;;;;;;6351036;28;20217;-67
2021/07/06 02:35:30;;;;;;;7.13;5.97;;;19.70;99.90;;;;;;6376547;27;20221;-69
2021/07/06 02:38:34;;;;;;;6.70;5.90;;;19.50;99.90;;;;;;6376641;27;20231;-70
2021/07/06 02:41:39;;;;;;;6.40;5.90;;;19.60;99.90;;;;;;6376124;27;20630;-70
2021/07/06 02:44:42;;;;;;;6.60;5.90;;;19.50;99.90;;;;;;6376488;27;20461;-70
2021/07/06 02:47:46;;;;;;;7.20;6.57;;;19.50;99.90;;;;;;6375457;27;20539;-70
2021/07/06 02:50:50;;;;;;;6.20;5.70;;;19.60;99.90;;;;;;6376416;27;20231;-67
2021/07/06 02:53:53;;;;;;;5.80;5.30;;;19.50;99.90;;;;;;6375661;27;20243;-68
2021/07/06 02:56:57;;;;;;;5.70;5.30;;;19.50;99.90;;;;;;6376378;27;20236;-68
2021/07/06 03:00:02;;;;;;;5.93;5.40;;;19.50;99.90;;;;;;6375721;27;20666;-67
2021/07/06 03:03:07;;;;;;;6.50;6.00;;;19.50;99.90;;;;;;6376272;27;20221;-67
2021/07/06 03:06:11;;;;;;;6.07;5.57;;;19.40;99.90;;;;;;6375829;27;20229;-68
2021/07/06 03:09:14;;;;;;;6.27;5.77;;;19.40;99.90;;;;;;6376099;27;20247;-70
2021/07/06 03:12:18;;;;;;;5.90;5.50;;;19.40;99.90;;;;;;6376055;27;20225;-62
2021/07/06 03:15:23;;;;;;;6.43;5.90;;;19.40;99.90;;;;;;6375117;27;20233;-65
2021/07/06 03:18:27;;;;;;;5.90;5.40;;;19.40;99.90;;;;;;6375782;27;20236;-63
2021/07/06 03:21:30;;;;;;;6.10;5.60;;;19.40;99.90;;;;;;6375447;27;20248;-64
2021/07/06 03:24:33;;;;;;;6.00;5.50;;;19.30;99.90;;;;;;6370791;27;20233;-69
2021/07/06 03:27:38;;;;;;;5.93;5.37;;;19.30;99.90;;;;;;6374369;27;20229;-63
2021/07/06 03:30:41;;;;;;;6.70;6.17;;;19.30;99.90;;;;;;6375093;27;20236;-67
2021/07/06 03:33:44;;;;;;;6.20;5.70;;;19.30;99.90;;;;;;6374556;27;20232;-64
2021/07/06 03:36:48;;;;;;;6.60;6.10;;;19.20;99.90;;;;;;6374644;27;20224;-69
2021/07/06 03:39:51;;;;;;;6.50;5.87;;;19.20;99.90;;;;;;6374163;27;20565;-69
2021/07/06 03:42:56;;;;;;;6.67;6.17;;;19.20;99.90;;;;;;6375187;27;20221;-69
2021/07/06 03:45:59;;;;;;;6.10;5.40;;;19.20;99.90;;;;;;6374954;27;20225;-61
2021/07/06 03:49:03;;;;;;;14.63;8.07;;;19.10;99.90;;;;;;6374962;27;20212;-66
2021/07/06 03:52:07;;;;;;;6.63;6.13;;;19.10;99.90;;;;;;6374652;27;20235;-62
2021/07/06 03:55:11;;;;;;;6.00;5.60;;;19.10;99.90;;;;;;6375122;27;20310;-63
2021/07/06 03:58:16;;;;;;;7.93;6.27;;;19.10;99.90;;;;;;6374961;27;20228;-68
2021/07/06 04:01:19;;;;;;;6.00;5.40;;;19.10;99.90;;;;;;6379071;27;20229;-63
2021/07/06 04:04:23;;;;;;;6.00;5.50;;;19.10;99.90;;;;;;6380093;27;20680;-62
2021/07/06 04:07:27;;;;;;;6.17;5.57;;;19.10;99.90;;;;;;6379793;27;20469;-68
2021/07/06 04:10:30;;;;;;;7.00;6.50;;;19.10;99.90;;;;;;6380005;27;20631;-63
2021/07/06 04:13:34;;;;;;;7.83;7.17;;;19.10;99.90;;;;;;6380160;27;20852;-63
2021/07/06 04:16:38;;;;;;;6.27;5.67;;;19.10;99.90;;;;;;6379702;27;20297;-63
2021/07/06 04:19:41;;;;;;;6.50;6.00;;;19.20;99.90;;;;;;6379665;27;20562;-67
2021/07/06 04:22:45;;;;;;;7.40;6.80;;;19.20;99.90;;;;;;6379607;27;20583;-66
2021/07/06 04:25:49;;;;;;;6.87;6.23;;;19.30;99.90;;;;;;6379642;27;20240;-67
2021/07/06 04:28:53;;;;;;;5.83;5.33;;;19.40;99.90;;;;;;6370703;27;20224;-64
2021/07/06 04:31:56;;;;;;;7.20;6.50;;;19.40;99.90;;;;;;6379501;27;20233;-62
2021/07/06 04:34:59;;;;;;;7.30;6.60;;;19.50;99.90;;;;;;6379259;27;20569;-68
2021/07/06 04:38:03;;;;;;;6.50;5.77;;;19.60;99.90;;;;;;6379273;27;20688;-67
2021/07/06 04:41:06;;;;;;;7.07;6.40;;;19.60;99.90;;;;;;6379613;27;20224;-63
2021/07/06 04:44:10;;;;;;;6.87;6.27;;;19.70;99.90;;;;;;6379137;27;20236;-67
2021/07/06 04:47:13;;;;;;;7.70;7.00;;;19.80;99.90;;;;;;6378827;27;20569;-67
2021/07/06 04:50:17;;;;;;;5.90;5.33;;;19.90;99.90;;;;;;6379323;27;20224;-67
2021/07/06 04:53:23;;;;;;;11.80;6.13;;;20.00;99.90;;;;;;6378708;27;20566;-67
2021/07/06 04:56:27;;;;;;;6.40;5.80;;;20.20;99.90;;;;;;6378831;27;20241;-68
2021/07/06 04:59:31;;;;;;;12.47;6.33;;;20.30;99.90;;;;;;6352894;27;20217;-67
2021/07/06 05:02:35;;;;;;;6.43;5.80;;;20.40;99.90;;;;;;6378810;27;20201;-66
2021/07/06 05:05:39;;;;;;;5.80;5.20;;;20.50;99.90;;;;;;6378424;27;20231;-66
2021/07/06 05:08:43;;;;;;;6.33;5.83;;;20.70;99.90;;;;;;6378878;27;20208;-64
2021/07/06 05:11:46;;;;;;;8.03;5.70;;;20.90;99.90;;;;;;6378226;27;20629;-62
2021/07/06 05:14:50;;;;;;;6.40;5.80;;;21.00;99.90;;;;;;6378573;27;20232;-63
2021/07/06 05:17:53;;;;;;;7.07;5.60;;;21.00;99.90;;;;;;6378046;27;20654;-68
2021/07/06 05:20:57;;;;;;;6.27;5.70;;;21.20;99.90;;;;;;6379137;27;20302;-68
2021/07/06 05:24:00;;;;;;;6.53;5.40;;;21.30;99.90;;;;;;6378599;27;20239;-67
2021/07/06 05:27:04;;;;;;;6.10;5.60;;;21.50;99.90;;;;;;6378288;27;20322;-67
2021/07/06 05:30:10;;;;;;;15.37;5.47;;;21.70;99.90;;;;;;6368973;27;20232;-68
2021/07/06 05:33:13;;;;;;;9.97;5.30;;;21.80;99.90;;;;;;6377789;27;20716;-68
2021/07/06 05:36:17;;;;;;;5.40;4.97;;;22.00;99.90;;;;;;6377657;27;20232;-68
2021/07/06 05:39:20;;;;;;;23.90;7.23;;;22.10;99.90;;;;;;6377560;27;20236;-63
2021/07/06 05:42:24;;;;;;;5.17;4.50;;;22.30;99.80;;;;;;6378228;27;20225;-64
2021/07/06 05:45:28;;;;;;;5.43;4.57;;;22.50;99.20;;;;;;6377638;27;20326;-63
2021/07/06 05:48:31;;;;;;;8.50;6.30;;;22.60;99.00;;;;;;6378087;27;20232;-69
2021/07/06 05:51:34;;;;;;;6.23;5.53;;;22.70;98.40;;;;;;6377448;27;20570;-68
2021/07/06 05:54:38;;;;;;;5.10;4.57;;;22.90;98.10;;;;;;6377776;27;20233;-65
2021/07/06 05:57:43;;;;;;;6.10;5.60;;;22.90;98.00;;;;;;6377428;27;20243;-65
2021/07/06 06:00:49;;;;;;;4.90;4.43;;;22.90;97.50;;;;;;6377787;27;20229;-65
2021/07/06 06:03:52;;;;;;;5.73;4.43;;;22.90;97.50;;;;;;6377099;27;20236;-65
2021/07/06 06:06:55;;;;;;;7.73;5.90;;;23.10;97.40;;;;;;6377342;27;20228;-65
2021/07/06 06:09:58;;;;;;;9.50;5.30;;;23.30;97.30;;;;;;6377245;27;20225;-66
2021/07/06 06:13:01;;;;;;;7.37;5.73;;;23.70;96.60;;;;;;6376796;27;20605;-67
2021/07/06 06:16:07;;;;;;;8.97;5.10;;;24.20;95.80;;;;;;6376958;27;20389;-68
2021/07/06 06:19:10;;;;;;;4.63;4.23;;;24.70;94.80;;;;;;6377105;27;20289;-68
2021/07/06 06:22:13;;;;;;;5.77;4.90;;;25.40;93.40;;;;;;6375915;27;20232;-66
2021/07/06 06:25:17;;;;;;;4.50;4.10;;;25.90;92.40;;;;;;6376650;27;20229;-69
2021/07/06 06:28:20;;;;;;;5.70;5.20;;;26.60;90.80;;;;;;6376750;27;20242;-67
2021/07/06 06:31:24;;;;;;;5.93;4.90;;;27.20;88.80;;;;;;6376347;27;20236;-67
2021/07/06 06:34:28;;;;;;;7.60;5.20;;;27.50;86.40;;;;;;6371521;27;20228;-68
2021/07/06 06:37:31;;;;;;;5.03;4.60;;;27.90;84.30;;;;;;6376132;27;20689;-68
2021/07/06 06:40:34;;;;;;;5.50;5.00;;;28.30;82.50;;;;;;6376432;27;20259;-67
2021/07/06 06:43:37;;;;;;;5.00;4.60;;;29.10;78.90;;;;;;6376072;27;20224;-69
2021/07/06 06:46:42;;;;;;;12.03;5.43;;;29.70;76.00;;;;;;6376553;27;20231;-68
2021/07/06 06:49:45;;;;;;;7.07;5.30;;;30.00;73.00;;;;;;6375946;27;20227;-69
2021/07/06 06:52:48;;;;;;;7.03;4.60;;;30.40;71.20;;;;;;6375603;27;20242;-69
2021/07/06 06:55:52;;;;;;;6.20;5.20;;;30.80;69.70;;;;;;6374121;27;20232;-69
2021/07/06 06:58:55;;;;;;;4.97;4.57;;;31.50;66.10;;;;;;6373832;27;20230;-68
2021/07/06 07:02:17;;;;;;;4.60;4.20;;;32.40;61.90;;;;;;6374316;27;20657;-69
2021/07/06 07:05:22;;;;;;;5.05;4.20;;;33.00;59.30;;;;;;6374004;27;20228;-69
2021/07/06 07:08:25;;;;;;;5.85;4.43;;;33.20;57.90;;;;;;6374530;27;20231;-69
2021/07/06 07:11:28;;;;;;;6.22;4.18;;;33.60;55.60;;;;;;6375565;27;20228;-69
2021/07/06 07:14:31;;;;;;;7.20;5.00;;;34.40;53.30;;;;;;6350006;28;20236;-68
2021/07/06 07:17:36;;;;;;;5.22;4.72;;;34.70;51.70;;;;;;6350932;27;20197;-69
2021/07/06 07:20:39;;;;;;;5.63;4.85;;;35.20;49.90;;;;;;6374328;27;20243;-68
2021/07/06 07:23:43;;;;;;;4.68;4.38;;;35.80;48.60;;;;;;6350043;28;20200;-69
2021/07/06 07:26:47;;;;;;;5.03;4.50;;;36.40;47.20;;;;;;6350192;28;20528;-69
2021/07/06 07:29:50;;;;;;;4.82;4.43;;;36.90;46.40;;;;;;6350148;28;20225;-69
2021/07/06 07:32:54;;;;;;;6.63;4.55;;;37.70;44.70;;;;;;6353572;27;20227;-70
2021/07/06 07:35:58;;;;;;;4.70;4.30;;;38.20;42.80;;;;;;6370831;27;20607;-69
2021/07/06 07:39:01;;;;;;;4.38;4.07;;;38.80;41.00;;;;;;6350998;28;20806;-76
2021/07/06 07:42:05;;;;;;;4.88;4.40;;;39.30;38.70;;;;;;6348668;28;20678;-70
2021/07/06 07:45:10;;;;;;;4.63;4.32;;;39.70;37.60;;;;;;6343326;28;20233;-70
2021/07/06 07:48:14;;;;;;;4.53;4.10;;;39.30;37.10;;;;;;6340598;28;20239;-69
2021/07/06 07:51:18;;;;;;;4.30;4.00;;;39.50;36.90;;;;;;6352566;27;20246;-69
2021/07/06 07:54:22;;;;;;;4.93;4.03;;;39.20;36.60;;;;;;6364139;27;20247;-69
2021/07/06 07:57:25;;;;;;;6.93;4.70;;;38.60;37.40;;;;;;6348278;28;20240;-68
2021/07/06 08:00:28;;;;;;;4.90;4.50;;;38.00;36.20;;;;;;6349667;28;20229;-66
2021/07/06 08:03:33;;;;;;;4.10;3.80;;;37.40;37.60;;;;;;6352724;27;20223;-67
2021/07/06 08:06:37;;;;;;;4.40;4.03;;;36.40;39.00;;;;;;6339542;27;20574;-67
2021/07/06 08:09:40;;;;;;;4.60;3.92;;;35.60;40.10;;;;;;6323404;28;20242;-67
2021/07/06 08:12:43;;;;;;;5.18;3.97;;;35.20;41.70;;;;;;6324021;28;20230;-68
2021/07/06 08:15:48;;;;;;;4.47;4.18;;;34.60;42.20;;;;;;6323084;28;20674;-73
2021/07/06 08:18:52;;;;;;;4.78;4.47;;;33.70;43.50;;;;;;6323844;28;20226;-70
2021/07/06 08:21:56;;;;;;;4.38;4.07;;;33.30;44.00;;;;;;6339372;28;20225;-67
2021/07/06 08:24:59;;;;;;;4.82;3.80;;;32.50;44.40;;;;;;6349168;28;20229;-66
2021/07/06 08:28:03;;;;;;;5.10;4.60;;;32.20;44.20;;;;;;6361983;27;20689;-67
2021/07/06 08:31:06;;;;;;;4.57;4.20;;;31.80;46.10;;;;;;6360892;27;20248;-70
2021/07/06 08:34:12;;;;;;;5.68;5.18;;;31.00;47.40;;;;;;6347741;28;20319;-66
2021/07/06 08:37:18;;;;;;;4.97;4.57;;;30.70;48.30;;;;;;6348155;28;20232;-70
2021/07/06 08:40:21;;;;;;;4.97;4.60;;;30.70;49.40;;;;;;6364129;27;20247;-67
2021/07/06 08:43:24;;;;;;;4.28;3.88;;;30.70;49.40;;;;;;6347774;27;20231;-67
2021/07/06 08:46:30;;;;;;;4.68;4.38;;;30.70;49.00;;;;;;6346281;28;20236;-69
2021/07/06 08:49:36;;;;;;;7.35;5.00;;;30.50;49.90;;;;;;6345362;28;20221;-70
2021/07/06 08:52:44;;;;;;;5.83;3.80;;;30.50;50.80;;;;;;6353221;27;20213;-68
2021/07/06 08:55:48;;;;;;;4.70;4.20;;;30.50;50.20;;;;;;6336948;28;20237;-74
2021/07/06 08:58:52;;;;;;;4.40;4.10;;;30.30;51.30;;;;;;6328300;28;20230;-79
2021/07/06 09:01:55;;;;;;;5.40;4.60;;;30.60;50.70;;;;;;6348149;28;20229;-69
2021/07/06 09:05:00;;;;;;;5.40;4.90;;;30.60;51.50;;;;;;6332178;27;20570;-78
2021/07/06 09:08:04;;;;;;;4.37;3.97;;;30.60;52.00;;;;;;6327584;28;20233;-72
2021/07/06 09:11:15;;;;;;;7.03;4.43;;;30.50;51.30;;;;;;6327818;28;20556;-74
2021/07/06 09:14:19;;;;;;;4.88;4.47;;;30.50;51.70;;;;;;6326945;28;20234;-70
2021/07/06 09:17:26;;;;;;;4.40;3.70;;;30.60;52.00;;;;;;6351777;28;20224;-75
2021/07/06 09:20:31;;;;;;;4.35;4.00;;;30.80;51.10;;;;;;6327342;27;20226;-76
2021/07/06 09:23:37;;;;;;;4.50;3.60;;;30.90;49.80;;;;;;6370914;27;20220;-69
2021/07/06 09:26:41;;;;;;;3.53;3.22;;;30.90;50.30;;;;;;6354137;27;20219;-75
2021/07/06 09:30:03;;;;;;;6.78;3.20;;;30.90;49.80;;;;;;6376272;27;20211;-69
2021/07/06 09:33:06;;;;;;;3.90;3.60;;;30.80;49.50;;;;;;6352445;28;20232;-69
2021/07/06 09:36:26;;;;;;;3.60;3.35;;;30.70;49.90;;;;;;6352353;28;20228;-66
2021/07/06 09:39:29;;;;;;;4.55;4.15;;;30.90;50.70;;;;;;6352132;28;20232;-73
2021/07/06 09:42:32;;;;;;;5.28;4.30;;;31.10;50.30;;;;;;6361081;27;20704;-74
2021/07/06 09:45:36;;;;;;;3.75;3.45;;;31.20;50.60;;;;;;6363593;27;20677;-70
2021/07/06 09:48:43;;;;;;;4.88;4.13;;;31.10;50.60;;;;;;6351819;28;20232;-72
2021/07/06 09:51:48;;;;;;;4.10;3.72;;;31.10;50.40;;;;;;6351905;28;20698;-72
2021/07/06 09:54:52;;;;;;;7.03;4.32;;;31.00;50.70;;;;;;6357398;27;20221;-70
2021/07/06 09:57:56;;;;;;;3.83;3.53;;;31.10;50.30;;;;;;6350440;27;20235;-69
2021/07/06 10:01:04;;;;;;;4.40;4.00;;;31.30;50.20;;;;;;6363743;27;20220;-66
2021/07/06 10:04:08;;;;;;;3.65;3.35;;;31.30;49.00;;;;;;6376408;27;20228;-65
2021/07/06 10:07:13;;;;;;;4.07;3.67;;;31.20;48.40;;;;;;6376373;27;20251;-65
2021/07/06 10:10:19;;;;;;;3.67;3.25;;;31.10;47.80;;;;;;6374955;27;20217;-66
2021/07/06 10:13:22;;;;;;;3.75;3.45;;;30.90;48.10;;;;;;6360741;27;20682;-67
2021/07/06 10:16:26;;;;;;;4.17;3.80;;;30.90;48.50;;;;;;6369492;27;20224;-66
2021/07/06 10:19:30;;;;;;;4.78;4.30;;;30.80;49.00;;;;;;6368083;27;20224;-65
2021/07/06 10:22:34;;;;;;;4.95;4.03;;;30.80;50.20;;;;;;6351971;27;20221;-65
2021/07/06 10:25:42;;;;;;;5.43;4.93;;;31.00;51.80;;;;;;6376461;27;20677;-65
2021/07/06 10:28:52;;;;;;;4.55;4.15;;;30.80;51.60;;;;;;6361884;27;20235;-67
2021/07/06 10:31:55;;;;;;;5.47;4.70;;;30.90;51.60;;;;;;6350820;27;20255;-66
2021/07/06 10:34:58;;;;;;;4.70;4.30;;;31.00;52.10;;;;;;6350664;27;20243;-66
2021/07/06 10:38:53;;;;;;;8.02;4.78;;;31.10;51.70;;;;;;6350370;27;20225;-65
2021/07/06 10:41:58;;;;;;;4.95;4.50;;;31.30;51.50;;;;;;6350394;27;20285;-65
2021/07/06 10:45:14;;;;;;;6.97;4.85;;;31.30;49.90;;;;;;6358248;27;20224;-66
2021/07/06 10:48:41;;;;;;;4.00;3.70;;;31.30;50.10;;;;;;6375573;27;20221;-66
2021/07/06 10:51:51;;;;;;;4.90;4.40;;;31.20;48.60;;;;;;6372166;27;20231;-68
2021/07/06 10:54:56;;;;;;;4.30;3.83;;;31.30;49.50;;;;;;6375390;27;20661;-64
2021/07/06 10:57:59;;;;;;;3.90;3.60;;;31.40;49.70;;;;;;6375847;27;20224;-63
2021/07/06 11:01:03;;;;;;;8.38;7.60;;;31.40;48.00;;;;;;6375464;27;20692;-65
2021/07/06 11:04:06;;;;;;;4.43;4.03;;;31.40;50.70;;;;;;6375403;27;20232;-68
2021/07/06 11:07:10;;;;;;;4.30;3.97;;;31.20;50.60;;;;;;6375379;27;20227;-63
2021/07/06 11:10:17;;;;;;;19.10;5.22;;;31.20;50.40;;;;;;6375203;27;20224;-62
2021/07/06 11:13:29;;;;;;;4.60;4.15;;;31.20;50.40;;;;;;6375598;27;20228;-68
2021/07/06 11:16:36;;;;;;;3.80;2.78;;;31.30;50.70;;;;;;6374992;27;20588;-64
2021/07/06 11:19:40;;;;;;;5.30;2.78;;;31.40;49.00;;;;;;6363109;27;20231;-67
2021/07/06 11:22:46;;;;;;;3.10;2.70;;;31.30;49.00;;;;;;6349724;27;20232;-65
2021/07/06 11:25:51;;;;;;;3.35;3.08;;;31.30;48.60;;;;;;6366235;27;20232;-69
2021/07/06 11:29:03;;;;;;;4.40;4.10;;;31.30;49.80;;;;;;6372918;27;20224;-65
2021/07/06 11:32:11;;;;;;;4.18;3.88;;;31.40;50.70;;;;;;6372872;27;20232;-67
2021/07/06 11:35:15;;;;;;;4.75;3.60;;;31.30;51.30;;;;;;6368207;27;20225;-68
2021/07/06 11:38:20;;;;;;;4.43;4.03;;;31.00;52.20;;;;;;6372647;27;20232;-67
2021/07/06 11:41:26;;;;;;;4.70;4.05;;;31.10;52.20;;;;;;6373771;27;20228;-66
2021/07/06 11:44:29;;;;;;;3.30;3.10;;;31.20;52.20;;;;;;6366068;27;20270;-72
2021/07/06 11:47:33;;;;;;;4.10;3.50;;;31.20;51.10;;;;;;6365027;27;20660;-65
2021/07/06 11:50:37;;;;;;;4.47;4.00;;;31.30;50.10;;;;;;6372202;27;20706;-65
2021/07/06 11:53:42;;;;;;;5.82;5.22;;;31.20;51.90;;;;;;6368660;27;20196;-65
2021/07/06 11:56:47;;;;;;;4.30;3.88;;;31.30;51.70;;;;;;6368605;27;20205;-65
2021/07/06 11:59:50;;;;;;;4.63;4.32;;;31.30;51.70;;;;;;6374420;27;20200;-69
2021/07/06 12:03:24;;;;;;;4.68;4.32;;;31.40;52.70;;;;;;6373806;27;20645;-65
2021/07/06 12:06:30;;;;;;;7.32;4.78;;;31.30;53.30;;;;;;6374556;27;20557;-63
2021/07/06 12:09:34;;;;;;;5.18;4.75;;;31.40;53.00;;;;;;6374424;27;20250;-66
2021/07/06 12:12:39;;;;;;;4.32;3.90;;;31.00;53.50;;;;;;6374644;27;20248;-64
2021/07/06 12:15:45;;;;;;;4.20;3.90;;;30.90;53.80;;;;;;6373786;27;20239;-65
2021/07/06 12:18:53;;;;;;;4.00;3.70;;;31.00;52.80;;;;;;6374442;27;20251;-62
2021/07/06 12:21:57;;;;;;;4.63;4.13;;;31.20;52.90;;;;;;6377682;27;20571;-66
2021/07/06 12:25:00;;;;;;;3.58;3.28;;;31.30;52.90;;;;;;6379579;27;20228;-67
2021/07/06 12:28:05;;;;;;;4.43;4.03;;;31.40;52.70;;;;;;6379529;27;20220;-64
2021/07/06 12:31:27;;;;;;;4.95;4.53;;;31.50;52.90;;;;;;6378877;27;20558;-70
2021/07/06 12:34:37;;;;;;;5.78;4.40;;;31.40;52.50;;;;;;6379198;27;20223;-64
2021/07/06 12:37:40;;;;;;;5.97;4.13;;;31.50;53.10;;;;;;6379165;27;20700;-68
2021/07/06 12:40:44;;;;;;;4.15;3.80;;;31.20;53.20;;;;;;6379282;27;20239;-63
2021/07/06 12:43:58;;;;;;;4.32;4.03;;;31.20;53.30;;;;;;6379078;27;20561;-64
2021/07/06 12:47:15;;;;;;;4.03;3.72;;;31.30;52.70;;;;;;6377168;27;20599;-69
2021/07/06 12:50:20;;;;;;;4.80;4.45;;;31.50;52.90;;;;;;6375907;27;20235;-70
2021/07/06 12:53:24;;;;;;;4.63;3.92;;;31.50;53.10;;;;;;6358915;27;20232;-67
2021/07/06 12:56:29;;;;;;;5.00;4.60;;;31.50;53.30;;;;;;6363362;27;20236;-69
2021/07/06 12:59:35;;;;;;;4.47;4.07;;;31.40;53.40;;;;;;6354940;27;20224;-68
2021/07/06 13:02:39;;;;;;;6.90;4.32;;;31.30;53.90;;;;;;6378457;27;20232;-69
2021/07/06 13:05:46;;;;;;;4.07;3.78;;;31.30;54.10;;;;;;6378375;27;20220;-66
2021/07/06 13:08:52;;;;;;;4.13;3.83;;;31.00;53.30;;;;;;6378455;27;20189;-69
2021/07/06 13:11:56;;;;;;;4.63;4.22;;;31.10;54.60;;;;;;6378408;27;20224;-67
2021/07/06 13:15:01;;;;;;;4.00;3.63;;;31.20;54.20;;;;;;6375958;27;20234;-74
2021/07/06 13:18:05;;;;;;;6.75;4.25;;;31.20;54.50;;;;;;6376563;27;20689;-65
2021/07/06 13:21:10;;;;;;;4.72;4.25;;;31.30;53.80;;;;;;6376076;27;20699;-69
2021/07/06 13:24:14;;;;;;;6.57;4.28;;;31.40;53.50;;;;;;6376346;27;20228;-65
2021/07/06 13:27:17;;;;;;;3.78;3.13;;;31.50;53.60;;;;;;6375443;27;20216;-72
2021/07/06 13:30:22;;;;;;;4.80;3.20;;;31.50;50.80;;;;;;6377497;27;20688;-65
2021/07/06 13:33:26;;;;;;;2.90;2.70;;;31.30;50.60;;;;;;6377318;27;20661;-67
2021/07/06 13:36:30;;;;;;;4.25;3.85;;;31.30;50.90;;;;;;6377795;27;20288;-70
2021/07/06 13:39:33;;;;;;;4.47;3.95;;;31.40;52.40;;;;;;6376449;27;20236;-68
2021/07/06 13:42:37;;;;;;;4.22;3.83;;;31.30;52.20;;;;;;6377533;27;20228;-67
2021/07/06 13:45:43;;;;;;;3.75;3.45;;;31.20;50.90;;;;;;6377681;27;20224;-70
2021/07/06 13:48:46;;;;;;;5.47;4.03;;;31.20;51.00;;;;;;6377288;27;20224;-69
2021/07/06 13:51:53;;;;;;;4.03;3.60;;;31.20;51.90;;;;;;6377599;27;20220;-68
2021/07/06 13:54:58;;;;;;;4.13;3.83;;;31.40;52.70;;;;;;6370687;27;20221;-70
2021/07/06 13:58:01;;;;;;;5.07;4.25;;;31.40;52.10;;;;;;6376080;27;20231;-68
2021/07/06 14:01:08;;;;;;;5.80;4.50;;;31.40;52.10;;;;;;6372308;27;20236;-69
2021/07/06 14:04:12;;;;;;;3.88;3.58;;;31.30;52.20;;;;;;6377018;27;20571;-69
2021/07/06 14:07:15;;;;;;;4.57;4.15;;;31.30;52.80;;;;;;6377061;27;20231;-69
2021/07/06 14:10:19;;;;;;;7.05;4.38;;;31.30;51.90;;;;;;6377015;27;20224;-69
2021/07/06 14:13:22;;;;;;;4.88;3.92;;;31.10;52.20;;;;;;6376947;27;20228;-69
2021/07/06 14:16:27;;;;;;;4.57;3.88;;;31.20;51.50;;;;;;6376379;27;20232;-69
2021/07/06 14:19:31;;;;;;;5.15;4.25;;;31.30;51.30;;;;;;6376527;27;20228;-71
2021/07/06 14:22:38;;;;;;;4.47;4.18;;;31.10;52.00;;;;;;6377083;27;20224;-66
2021/07/06 14:25:44;;;;;;;4.63;4.32;;;31.20;51.90;;;;;;6375464;27;20232;-65
2021/07/06 14:28:51;;;;;;;4.80;4.47;;;31.00;51.80;;;;;;6369172;27;20665;-66
2021/07/06 14:31:56;;;;;;;6.50;4.80;;;31.10;52.40;;;;;;6357421;27;20505;-66
2021/07/06 14:34:59;;;;;;;5.30;4.80;;;31.20;52.90;;;;;;6376251;27;20242;-65
2021/07/06 14:38:04;;;;;;;5.47;4.93;;;31.40;53.00;;;;;;6353177;27;20232;-65
2021/07/06 14:41:07;;;;;;;4.95;4.53;;;31.40;51.50;;;;;;6350668;27;20225;-65
2021/07/06 14:44:10;;;;;;;7.13;4.32;;;31.50;51.50;;;;;;6351606;27;20229;-65
2021/07/06 14:47:16;;;;;;;5.35;4.85;;;31.60;51.70;;;;;;6375670;27;20220;-67
2021/07/06 14:50:19;;;;;;;5.18;4.68;;;31.60;51.30;;;;;;6374044;27;20220;-66
2021/07/06 14:53:22;;;;;;;4.45;4.15;;;31.70;51.60;;;;;;6372669;27;20246;-64
2021/07/06 14:56:26;;;;;;;4.93;4.43;;;31.60;51.60;;;;;;6354025;27;20558;-65
2021/07/06 14:59:29;;;;;;;4.72;4.40;;;31.70;51.30;;;;;;6359832;27;20220;-66
2021/07/06 15:02:33;;;;;;;4.70;4.30;;;31.70;51.40;;;;;;6372999;27;20220;-67
2021/07/06 15:05:37;;;;;;;5.18;4.68;;;31.70;51.70;;;;;;6364863;27;20228;-68
2021/07/06 15:08:40;;;;;;;5.63;5.13;;;31.80;53.50;;;;;;6376059;27;20200;-67
2021/07/06 15:11:43;;;;;;;6.60;6.00;;;31.50;53.40;;;;;;6375431;27;20200;-73
2021/07/06 15:14:47;;;;;;;5.25;4.85;;;31.60;53.70;;;;;;6372841;27;20239;-69
2021/07/06 15:17:52;;;;;;;6.13;5.63;;;31.80;53.00;;;;;;6374327;27;20192;-71
2021/07/06 15:20:55;;;;;;;6.60;5.55;;;31.90;53.00;;;;;;6374251;27;20250;-69
2021/07/06 15:23:58;;;;;;;6.13;5.63;;;31.90;53.20;;;;;;6372299;27;20231;-67
2021/07/06 15:27:01;;;;;;;5.15;4.75;;;31.90;52.90;;;;;;6365404;27;20212;-67
2021/07/06 15:30:06;;;;;;;6.28;5.88;;;31.90;52.70;;;;;;6354336;27;20221;-66
2021/07/06 15:33:12;;;;;;;5.10;4.50;;;31.90;52.60;;;;;;6360300;27;20239;-65
2021/07/06 15:36:32;;;;;;;6.15;5.65;;;32.00;52.60;;;;;;6373381;27;20224;-67
2021/07/06 15:39:35;;;;;;;5.95;4.95;;;32.10;52.90;;;;;;6375262;27;20277;-65
2021/07/06 15:42:39;;;;;;;6.05;5.43;;;32.10;52.40;;;;;;6356203;27;20247;-65
2021/07/06 15:45:43;;;;;;;6.10;5.60;;;32.10;53.00;;;;;;6349268;27;20232;-65
2021/07/06 15:48:48;;;;;;;6.20;5.18;;;32.00;53.40;;;;;;6358703;27;20334;-65
2021/07/06 15:51:51;;;;;;;5.90;5.40;;;32.00;53.20;;;;;;6372473;27;20224;-64
2021/07/06 15:54:55;;;;;;;5.85;5.45;;;31.90;53.30;;;;;;6372367;27;20232;-66
2021/07/06 15:57:58;;;;;;;5.95;5.45;;;32.00;53.40;;;;;;6372705;27;20231;-65
2021/07/06 16:01:01;;;;;;;6.20;5.70;;;32.00;53.40;;;;;;6371960;27;20231;-66